Time;durP1;ratioP1;P1;durP2;ratioP2;P2;SDS_P1;SDS_P2;PMS_P1;PMS_P2;Temp;Humidity;BMP_temperature;BMP_pressure;BME280_temperature;BME280_humidity;BME280_pressure;Samples;Min_cycle;Max_cycle;Signal;HPM_P1;HPM_P2
2021/10/31 00:00:39;;;;;;;16.4;20.3;;;;;;;7;65.3;98800;;;;
2021/10/31 00:10:39;;;;;;;16.4;20.3;;;;;;;7.2;63.7;98800;;;;
2021/10/31 00:20:39;;;;;;;8.6;12.9;;;;;;;7;64.7;98810;;;;
2021/10/31 00:30:39;;;;;;;8.6;12.9;;;;;;;6.9;64.9;98820;;;;
2021/10/31 00:40:40;;;;;;;8.6;12.9;;;;;;;6;67.2;98810;;;;
2021/10/31 00:50:39;;;;;;;12.9;17.6;;;;;;;5.6;68.5;98820;;;;
2021/10/31 01:01:39;;;;;;;12.9;17.6;;;;;;;5.3;68.5;98820;;;;
2021/10/31 01:12:39;;;;;;;12.9;17.6;;;;;;;5.2;69.7;98810;;;;
2021/10/31 01:22:39;;;;;;;13.9;17;;;;;;;5.8;69.3;98800;;;;
2021/10/31 01:32:39;;;;;;;13.9;17;;;;;;;5.7;68.8;98810;;;;
2021/10/31 01:42:39;;;;;;;13.9;17;;;;;;;5.1;69.6;98820;;;;
2021/10/31 01:52:39;;;;;;;14;18.4;;;;;;;4.9;71.6;98820;;;;
2021/10/31 02:03:39;;;;;;;14;18.4;;;;;;;4.7;71.2;98820;;;;
2021/10/31 02:13:40;;;;;;;14;18.4;;;;;;;4.7;72.5;98830;;;;
2021/10/31 02:23:39;;;;;;;14.7;17.2;;;;;;;4.8;71.3;98830;;;;
2021/10/31 02:34:39;;;;;;;14.7;17.2;;;;;;;4.8;71.6;98830;;;;
2021/10/31 02:44:39;;;;;;;14.7;17.2;;;;;;;4.6;71.9;98830;;;;
2021/10/31 02:54:39;;;;;;;10.6;14.3;;;;;;;4.5;72.2;98830;;;;
2021/10/31 03:04:39;;;;;;;10.6;14.3;;;;;;;4.6;72.1;98830;;;;
2021/10/31 03:15:39;;;;;;;11.1;16.6;;;;;;;4.6;71.7;98850;;;;
2021/10/31 03:26:39;;;;;;;11.1;16.6;;;;;;;4.3;72.1;98840;;;;
2021/10/31 03:36:39;;;;;;;11.1;16.6;;;;;;;4.7;73.8;98850;;;;
2021/10/31 03:46:39;;;;;;;10.5;13.5;;;;;;;4.9;72.4;98860;;;;
2021/10/31 03:56:39;;;;;;;10.5;13.5;;;;;;;4.6;72.2;98850;;;;
2021/10/31 04:07:39;;;;;;;10.5;13.5;;;;;;;4.6;72.6;98850;;;;
2021/10/31 04:17:39;;;;;;;9.7;12.9;;;;;;;4.5;72.7;98850;;;;
2021/10/31 04:27:39;;;;;;;9.7;12.9;;;;;;;4.4;73.7;98840;;;;
2021/10/31 04:37:42;;;;;;;9.7;12.9;;;;;;;4.3;73.3;98850;;;;
2021/10/31 04:47:40;;;;;;;12.5;16.1;;;;;;;3.8;74.7;98830;;;;
2021/10/31 04:57:39;;;;;;;12.5;16.1;;;;;;;3.7;74.1;98840;;;;
2021/10/31 05:07:40;;;;;;;12.5;16.1;;;;;;;3.5;76.6;98840;;;;
2021/10/31 05:17:40;;;;;;;16.6;20;;;;;;;3.7;76;98830;;;;
2021/10/31 05:27:39;;;;;;;16.6;20;;;;;;;3.7;76;98840;;;;
2021/10/31 05:37:41;;;;;;;16.6;20;;;;;;;3.9;75.8;98850;;;;
2021/10/31 05:47:39;;;;;;;13.8;16.8;;;;;;;3.9;75.1;98870;;;;
2021/10/31 05:57:39;;;;;;;13.8;16.8;;;;;;;3.4;74.9;98890;;;;
2021/10/31 06:07:39;;;;;;;13.8;16.8;;;;;;;3.5;76.2;98900;;;;
2021/10/31 06:17:39;;;;;;;17.9;26;;;;;;;3.9;76.3;98890;;;;
2021/10/31 06:27:39;;;;;;;17.9;26;;;;;;;4.4;76;98880;;;;
2021/10/31 06:37:39;;;;;;;17.9;26;;;;;;;4.9;75;98890;;;;
2021/10/31 06:47:39;;;;;;;13.7;17.1;;;;;;;5.3;74;98900;;;;
2021/10/31 06:57:40;;;;;;;13.7;17.1;;;;;;;5.8;72.3;98910;;;;
2021/10/31 07:08:39;;;;;;;13.7;17.1;;;;;;;6.4;71.2;98900;;;;
2021/10/31 07:18:39;;;;;;;14.3;19.4;;;;;;;6.8;71.3;98910;;;;
2021/10/31 07:28:39;;;;;;;14.3;19.4;;;;;;;7.5;69.6;98910;;;;
2021/10/31 07:38:42;;;;;;;14.3;19.4;;;;;;;7.7;68.2;98910;;;;
2021/10/31 07:48:39;;;;;;;19.1;23.8;;;;;;;8;66.8;98920;;;;
2021/10/31 07:58:42;;;;;;;19.1;23.8;;;;;;;8.4;66.4;98930;;;;
2021/10/31 08:08:39;;;;;;;19.1;23.8;;;;;;;8.9;65.9;98910;;;;
2021/10/31 08:19:39;;;;;;;17.5;20.6;;;;;;;9.5;65.7;98910;;;;
2021/10/31 08:29:40;;;;;;;17.5;20.6;;;;;;;10.1;64.5;98900;;;;
2021/10/31 08:39:39;;;;;;;17.5;20.6;;;;;;;10.7;64.3;98910;;;;
2021/10/31 08:50:39;;;;;;;15.5;19.5;;;;;;;11.5;61.8;98900;;;;
2021/10/31 09:00:39;;;;;;;15.5;19.5;;;;;;;12.2;60.8;98900;;;;
2021/10/31 09:10:40;;;;;;;15.5;19.5;;;;;;;12.7;59.3;98880;;;;
2021/10/31 09:20:39;;;;;;;15.4;17.8;;;;;;;13.4;56.9;98870;;;;
2021/10/31 09:30:39;;;;;;;15.4;17.8;;;;;;;14.1;54.1;98860;;;;
2021/10/31 09:41:39;;;;;;;15.4;17.8;;;;;;;14.8;53.6;98860;;;;
2021/10/31 09:51:40;;;;;;;8.6;11.6;;;;;;;15.3;47.2;98850;;;;
2021/10/31 10:01:50;;;;;;;8.6;11.6;;;;;;;15.8;43.3;98830;;;;
2021/10/31 10:11:39;;;;;;;8.6;11.6;;;;;;;16.2;43.3;98820;;;;
2021/10/31 10:21:39;;;;;;;4.2;6;;;;;;;16.6;41.2;98820;;;;
2021/10/31 10:41:39;;;;;;;4.2;6;;;;;;;17;41.2;98800;;;;
2021/10/31 10:51:39;;;;;;;4.9;8;;;;;;;17.3;39;98780;;;;
2021/10/31 11:01:39;;;;;;;4.9;8;;;;;;;17.8;40;98770;;;;
2021/10/31 11:11:39;;;;;;;4.9;8;;;;;;;17.8;39.9;98750;;;;
2021/10/31 11:21:39;;;;;;;4.9;8.8;;;;;;;18.2;40.6;98730;;;;
2021/10/31 11:31:39;;;;;;;4.9;8.8;;;;;;;18.4;39.8;98720;;;;
2021/10/31 11:41:39;;;;;;;4.9;8.8;;;;;;;18.4;41.2;98710;;;;
2021/10/31 11:51:39;;;;;;;6.6;9.9;;;;;;;18.7;41.1;98700;;;;
2021/10/31 12:01:39;;;;;;;6.6;9.9;;;;;;;18.8;40.1;98700;;;;
2021/10/31 12:12:39;;;;;;;6.6;9.9;;;;;;;18.9;39.9;98680;;;;
2021/10/31 12:22:39;;;;;;;5.4;10.8;;;;;;;19;40.3;98670;;;;
2021/10/31 12:33:39;;;;;;;5.4;10.8;;;;;;;19.1;38;98660;;;;
2021/10/31 12:43:42;;;;;;;5.4;10.8;;;;;;;19.1;38.7;98650;;;;
2021/10/31 12:53:39;;;;;;;5.1;7.9;;;;;;;18.9;39.5;98630;;;;
2021/10/31 13:03:39;;;;;;;5.1;7.9;;;;;;;18.8;39.2;98620;;;;
2021/10/31 13:13:39;;;;;;;5.1;7.9;;;;;;;18.6;39.9;98610;;;;
2021/10/31 13:23:43;;;;;;;5.7;8.7;;;;;;;18.6;40.1;98600;;;;
2021/10/31 13:33:39;;;;;;;5.7;8.7;;;;;;;18.3;39.3;98610;;;;
2021/10/31 13:43:39;;;;;;;5.7;8.7;;;;;;;18.1;39.9;98610;;;;
2021/10/31 13:53:39;;;;;;;5.4;8.2;;;;;;;17.9;40.9;98600;;;;
2021/10/31 14:03:39;;;;;;;5.4;8.2;;;;;;;17.5;43;98600;;;;
2021/10/31 14:14:40;;;;;;;6.2;8.9;;;;;;;17;45.1;98580;;;;
2021/10/31 14:24:39;;;;;;;6.2;8.9;;;;;;;16.6;45.8;98580;;;;
2021/10/31 14:35:39;;;;;;;6.2;8.9;;;;;;;16.1;47.4;98580;;;;
2021/10/31 14:45:40;;;;;;;6.8;9.7;;;;;;;15.6;48.4;98580;;;;
2021/10/31 14:55:40;;;;;;;6.8;9.7;;;;;;;15.1;49;98570;;;;
2021/10/31 15:05:41;;;;;;;6.8;9.7;;;;;;;14.5;49.8;98560;;;;
2021/10/31 15:15:39;;;;;;;8.3;13.3;;;;;;;13.8;50.9;98560;;;;
2021/10/31 15:25:39;;;;;;;8.3;13.3;;;;;;;13.1;52.5;98540;;;;
2021/10/31 15:35:41;;;;;;;8.3;13.3;;;;;;;12.8;54.8;98540;;;;
2021/10/31 15:45:39;;;;;;;16;19;;;;;;;12.6;55.5;98530;;;;
2021/10/31 15:55:39;;;;;;;16;19;;;;;;;12.2;56.6;98520;;;;
2021/10/31 16:05:39;;;;;;;16;19;;;;;;;11.9;56.9;98520;;;;
2021/10/31 16:15:39;;;;;;;23.8;27.5;;;;;;;11.3;57.7;98510;;;;
2021/10/31 16:25:39;;;;;;;23.8;27.5;;;;;;;10.9;59.4;98510;;;;
2021/10/31 16:36:39;;;;;;;23.8;27.5;;;;;;;10.3;61.3;98490;;;;
2021/10/31 16:46:39;;;;;;;13.2;16.6;;;;;;;9.9;62.1;98490;;;;
2021/10/31 16:57:40;;;;;;;13.2;16.6;;;;;;;9.9;63.1;98490;;;;
2021/10/31 17:07:40;;;;;;;13.2;16.6;;;;;;;9.6;63.5;98490;;;;
2021/10/31 17:17:39;;;;;;;13.1;16.5;;;;;;;9;64.3;98490;;;;
2021/10/31 17:27:40;;;;;;;13.1;16.5;;;;;;;8.6;65.4;98480;;;;
2021/10/31 17:37:39;;;;;;;13.1;16.5;;;;;;;8.2;66.2;98490;;;;
2021/10/31 17:47:39;;;;;;;16;18.2;;;;;;;7.9;67.2;98490;;;;
2021/10/31 17:57:40;;;;;;;16;18.2;;;;;;;7.5;68.5;98490;;;;
2021/10/31 18:07:39;;;;;;;16;18.2;;;;;;;7.2;70.1;98480;;;;
2021/10/31 18:17:39;;;;;;;37.5;42.8;;;;;;;6.9;70.9;98480;;;;
2021/10/31 18:27:39;;;;;;;37.5;42.8;;;;;;;6.9;72.9;98470;;;;
2021/10/31 18:37:42;;;;;;;37.5;42.8;;;;;;;7;73.5;98470;;;;
2021/10/31 18:47:43;;;;;;;33.8;43;;;;;;;6.9;72.3;98460;;;;
2021/10/31 18:57:39;;;;;;;33.8;43;;;;;;;6.8;73.4;98450;;;;
2021/10/31 19:07:39;;;;;;;33.8;43;;;;;;;6.6;72.9;98450;;;;
2021/10/31 19:18:40;;;;;;;31.2;38.2;;;;;;;6.3;74.2;98440;;;;
2021/10/31 19:28:39;;;;;;;31.2;38.2;;;;;;;6.2;75.7;98440;;;;
2021/10/31 19:38:39;;;;;;;31.2;38.2;;;;;;;6.1;76;98430;;;;
2021/10/31 19:48:39;;;;;;;35.6;42.5;;;;;;;6.1;75.4;98420;;;;
2021/10/31 19:58:39;;;;;;;35.6;42.5;;;;;;;6;75.2;98410;;;;
2021/10/31 20:08:40;;;;;;;35.6;42.5;;;;;;;5.9;76.3;98410;;;;
2021/10/31 20:18:39;;;;;;;32.1;37.8;;;;;;;6;76.4;98400;;;;
2021/10/31 20:28:39;;;;;;;32.1;37.8;;;;;;;5.7;75.6;98400;;;;
2021/10/31 20:38:42;;;;;;;32.1;37.8;;;;;;;5.4;75.8;98380;;;;
2021/10/31 20:48:39;;;;;;;27.7;32.7;;;;;;;5.2;77.6;98370;;;;
2021/10/31 20:58:41;;;;;;;27.7;32.7;;;;;;;5.1;77.8;98370;;;;
2021/10/31 21:08:40;;;;;;;27.7;32.7;;;;;;;4.8;76.5;98370;;;;
2021/10/31 21:18:40;;;;;;;26;33.9;;;;;;;4.5;76.5;98360;;;;
2021/10/31 21:28:40;;;;;;;26;33.9;;;;;;;4.4;78;98350;;;;
2021/10/31 21:38:41;;;;;;;26;33.9;;;;;;;4.3;78.8;98340;;;;
2021/10/31 21:48:40;;;;;;;31.4;40;;;;;;;4.1;78.6;98330;;;;
2021/10/31 21:58:40;;;;;;;31.4;40;;;;;;;3.9;78.8;98320;;;;
2021/10/31 22:08:40;;;;;;;31.4;40;;;;;;;3.7;79.4;98310;;;;
2021/10/31 22:18:40;;;;;;;33.3;39.1;;;;;;;3.8;80.6;98310;;;;
2021/10/31 22:28:40;;;;;;;33.3;39.1;;;;;;;3.7;80.5;98300;;;;
2021/10/31 22:38:40;;;;;;;33.3;39.1;;;;;;;3.6;81;98290;;;;
2021/10/31 22:48:40;;;;;;;35.3;42.7;;;;;;;3.4;80.5;98280;;;;
2021/10/31 22:58:40;;;;;;;35.3;42.7;;;;;;;3.2;80.4;98280;;;;
2021/10/31 23:08:40;;;;;;;35.3;42.7;;;;;;;3.1;80.8;98270;;;;
2021/10/31 23:18:41;;;;;;;33.5;37.9;;;;;;;3;81.3;98270;;;;
2021/10/31 23:28:40;;;;;;;33.5;37.9;;;;;;;2.8;80.5;98270;;;;
2021/10/31 23:38:40;;;;;;;33.5;37.9;;;;;;;2.7;81.5;98270;;;;
2021/10/31 23:48:40;;;;;;;33.7;38.3;;;;;;;2.8;82.6;98250;;;;
2021/10/31 23:58:40;;;;;;;33.7;38.3;;;;;;;2.7;82.1;98250;;;;
